Time;durP1;ratioP1;P1;durP2;ratioP2;P2;SDS_P1;SDS_P2;PMS_P1;PMS_P2;Temp;Humidity;BMP_temperature;BMP_pressure;BME280_temperature;BME280_humidity;BME280_pressure;Samples;Min_cycle;Max_cycle;Signal;HPM_P1;HPM_P2
2023/12/03 00:02:05;;;;;;;9.50;9.20;;;-3.40;99.90;;;;;;5100826;27;20278;-79
2023/12/03 00:04:32;;;;;;;9.70;9.40;;;-3.40;99.90;;;;;;5100304;27;20229;-78
2023/12/03 00:07:00;;;;;;;9.67;9.37;;;-3.40;99.90;;;;;;5100507;27;20221;-79
2023/12/03 00:09:30;;;;;;;9.33;9.03;;;-3.40;99.90;;;;;;5097334;28;20277;-80
2023/12/03 00:11:57;;;;;;;9.83;9.53;;;-3.40;99.90;;;;;;5100319;27;20225;-80
2023/12/03 00:14:27;;;;;;;9.43;9.13;;;-3.40;99.90;;;;;;5094206;27;20218;-79
2023/12/03 00:16:56;;;;;;;9.20;8.90;;;-3.40;99.90;;;;;;5100314;27;20241;-79
2023/12/03 00:19:23;;;;;;;9.43;9.13;;;-3.30;99.90;;;;;;5085008;28;20234;-80
2023/12/03 00:21:50;;;;;;;9.83;9.53;;;-3.30;99.90;;;;;;5083464;28;20244;-81
2023/12/03 00:24:18;;;;;;;9.57;9.27;;;-3.30;99.90;;;;;;5082162;28;20221;-81
2023/12/03 00:26:46;;;;;;;9.83;9.53;;;-3.30;99.90;;;;;;5091248;28;20288;-80
2023/12/03 00:29:14;;;;;;;9.63;9.33;;;-3.20;99.90;;;;;;5089547;28;20242;-77
2023/12/03 00:31:42;;;;;;;9.80;9.50;;;-3.30;99.90;;;;;;5089949;28;20234;-80
2023/12/03 00:34:11;;;;;;;9.80;9.50;;;-3.30;99.90;;;;;;5083600;28;20234;-80
2023/12/03 00:36:38;;;;;;;9.97;9.67;;;-3.30;99.90;;;;;;5082571;28;20235;-80
2023/12/03 00:39:06;;;;;;;10.20;9.90;;;-3.30;99.90;;;;;;5082922;28;20234;-78
2023/12/03 00:41:33;;;;;;;10.23;9.93;;;-3.30;99.90;;;;;;5081936;28;20290;-77
2023/12/03 00:44:01;;;;;;;10.00;9.70;;;-3.20;99.90;;;;;;5088317;28;20230;-78
2023/12/03 00:46:28;;;;;;;9.90;9.60;;;-3.30;99.90;;;;;;5093762;28;20236;-80
2023/12/03 00:48:55;;;;;;;10.00;9.70;;;-3.30;99.90;;;;;;5095310;28;20234;-80
2023/12/03 00:51:24;;;;;;;9.73;9.43;;;-3.30;99.90;;;;;;5090292;28;20230;-77
2023/12/03 00:53:52;;;;;;;10.00;9.70;;;-3.30;99.90;;;;;;5082392;28;20229;-80
2023/12/03 00:56:19;;;;;;;9.83;9.53;;;-3.30;99.90;;;;;;5083272;28;20234;-80
2023/12/03 00:58:46;;;;;;;9.90;9.60;;;-3.30;99.90;;;;;;5083175;28;20234;-80
2023/12/03 01:01:13;;;;;;;10.20;9.90;;;-3.30;99.90;;;;;;5082260;28;20239;-81
2023/12/03 01:03:41;;;;;;;10.03;9.73;;;-3.20;99.90;;;;;;5083589;28;20226;-80
2023/12/03 01:06:09;;;;;;;10.20;9.90;;;-3.20;99.90;;;;;;5082913;28;20260;-80
2023/12/03 01:08:38;;;;;;;9.70;9.40;;;-3.20;99.90;;;;;;5082146;28;20233;-80
2023/12/03 01:11:06;;;;;;;10.00;9.70;;;-3.20;99.90;;;;;;5080911;28;20233;-79
2023/12/03 01:13:33;;;;;;;10.00;9.70;;;-3.20;99.90;;;;;;5079636;28;20223;-77
2023/12/03 01:16:00;;;;;;;10.07;9.77;;;-3.10;99.90;;;;;;5081737;28;20241;-81
2023/12/03 01:18:28;;;;;;;9.87;9.57;;;-3.10;99.90;;;;;;5081133;28;20230;-78
2023/12/03 01:20:55;;;;;;;9.87;9.57;;;-3.00;99.90;;;;;;5078489;28;20311;-78
2023/12/03 01:23:22;;;;;;;9.70;9.40;;;-3.00;99.90;;;;;;5077635;28;20223;-78
2023/12/03 01:25:51;;;;;;;9.77;9.47;;;-3.00;99.90;;;;;;5083484;28;20231;-77
2023/12/03 01:28:20;;;;;;;10.27;9.97;;;-3.00;99.90;;;;;;5078146;28;20353;-78
2023/12/03 01:30:48;;;;;;;10.10;9.80;;;-3.00;99.90;;;;;;5078023;28;20244;-77
2023/12/03 01:33:15;;;;;;;10.03;9.73;;;-3.00;99.90;;;;;;5078389;28;20342;-80
2023/12/03 01:35:42;;;;;;;9.90;9.60;;;-2.90;99.90;;;;;;5079240;28;20230;-79
2023/12/03 01:38:10;;;;;;;9.90;9.60;;;-3.00;99.90;;;;;;5080684;28;20235;-77
2023/12/03 01:40:38;;;;;;;10.07;9.77;;;-3.00;99.90;;;;;;5079283;28;20279;-78
2023/12/03 01:43:06;;;;;;;10.70;10.40;;;-3.00;99.90;;;;;;5082183;28;20285;-78
2023/12/03 01:45:34;;;;;;;10.20;9.90;;;-3.00;99.90;;;;;;5082950;28;20238;-78
2023/12/03 01:48:01;;;;;;;10.17;9.87;;;-3.10;99.90;;;;;;5082841;28;20766;-78
2023/12/03 01:50:28;;;;;;;10.80;10.50;;;-3.10;99.90;;;;;;5082247;28;20300;-78
2023/12/03 01:52:56;;;;;;;10.17;9.87;;;-3.10;99.90;;;;;;5082652;28;20272;-78
2023/12/03 01:55:24;;;;;;;10.00;9.70;;;-3.00;99.90;;;;;;5083674;28;20237;-78
2023/12/03 01:57:52;;;;;;;10.30;10.00;;;-3.00;99.90;;;;;;5080371;28;20222;-78
2023/12/03 02:00:21;;;;;;;9.90;9.60;;;-3.00;99.90;;;;;;5080381;28;20239;-78
2023/12/03 02:02:48;;;;;;;10.43;10.13;;;-3.10;99.90;;;;;;5081242;28;20226;-78
2023/12/03 02:05:16;;;;;;;10.40;10.10;;;-3.10;99.90;;;;;;5083253;28;20230;-78
2023/12/03 02:07:43;;;;;;;10.20;9.90;;;-3.10;99.90;;;;;;5081655;28;20321;-78
2023/12/03 02:10:13;;;;;;;10.50;10.20;;;-3.20;99.90;;;;;;5081576;28;20242;-78
2023/12/03 02:12:40;;;;;;;10.30;10.00;;;-3.20;99.90;;;;;;5081451;28;20235;-78
2023/12/03 02:15:09;;;;;;;10.20;9.90;;;-3.30;99.90;;;;;;5081372;28;20226;-78
2023/12/03 02:17:38;;;;;;;10.60;10.30;;;-3.30;99.90;;;;;;5081107;28;20234;-78
2023/12/03 02:20:07;;;;;;;10.13;9.83;;;-3.30;99.90;;;;;;5081054;28;20230;-78
2023/12/03 02:22:40;;;;;;;10.30;10.00;;;-3.30;99.90;;;;;;5081630;28;20288;-78
2023/12/03 02:25:09;;;;;;;10.47;10.17;;;-3.30;99.90;;;;;;5081457;28;20233;-78
2023/12/03 02:27:36;;;;;;;10.50;10.20;;;-3.30;99.90;;;;;;5081915;28;20234;-78
2023/12/03 02:30:04;;;;;;;10.70;10.40;;;-3.40;99.90;;;;;;5081424;28;20245;-78
2023/12/03 02:32:31;;;;;;;9.70;9.40;;;-3.40;99.90;;;;;;5081567;28;20284;-79
2023/12/03 02:34:59;;;;;;;10.77;10.47;;;-3.40;99.90;;;;;;5082039;28;20718;-79
2023/12/03 02:37:26;;;;;;;10.37;10.07;;;-3.40;99.90;;;;;;5081345;28;20226;-79
2023/12/03 02:39:55;;;;;;;10.63;10.33;;;-3.40;99.90;;;;;;5083897;28;20237;-79
2023/12/03 02:42:22;;;;;;;10.20;9.90;;;-3.40;99.90;;;;;;5090675;28;20249;-80
2023/12/03 02:44:50;;;;;;;10.37;10.07;;;-3.40;99.90;;;;;;5085931;28;20360;-80
2023/12/03 02:47:17;;;;;;;10.80;10.50;;;-3.40;99.90;;;;;;5084163;28;20245;-81
2023/12/03 02:49:45;;;;;;;11.00;10.70;;;-3.40;99.90;;;;;;5083962;28;20230;-80
2023/12/03 02:52:13;;;;;;;10.57;10.27;;;-3.40;99.90;;;;;;5083731;28;21045;-79
2023/12/03 02:54:40;;;;;;;10.70;10.40;;;-3.40;99.90;;;;;;5084150;28;20230;-80
2023/12/03 02:57:09;;;;;;;10.63;10.33;;;-3.40;99.90;;;;;;5083860;28;20229;-80
2023/12/03 02:59:36;;;;;;;10.33;10.03;;;-3.40;99.90;;;;;;5086355;28;20297;-80
2023/12/03 03:02:04;;;;;;;10.33;10.03;;;-3.30;99.90;;;;;;5085997;28;20264;-81
2023/12/03 03:04:31;;;;;;;10.17;9.87;;;-3.20;99.90;;;;;;5086347;28;20235;-80
2023/12/03 03:06:59;;;;;;;9.90;9.60;;;-3.20;99.90;;;;;;5084200;28;20237;-80
2023/12/03 03:09:28;;;;;;;10.40;10.10;;;-3.20;99.90;;;;;;5103323;22;20229;-84
2023/12/03 03:11:57;;;;;;;10.40;10.10;;;-3.10;99.90;;;;;;5108783;28;20218;-84
2023/12/03 03:17:23;;;;;;;10.23;9.93;;;-3.00;99.90;;;;;;5111863;28;20237;-82
2023/12/03 03:19:51;;;;;;;10.30;10.00;;;-2.90;99.90;;;;;;5112420;28;20252;-83
2023/12/03 03:22:30;;;;;;;10.10;9.80;;;-2.90;99.90;;;;;;5108864;28;20218;-84
2023/12/03 03:25:00;;;;;;;10.40;10.10;;;-2.90;99.90;;;;;;5107730;28;20240;-82
2023/12/03 03:27:28;;;;;;;10.20;9.90;;;-2.80;99.90;;;;;;5112313;28;20244;-81
2023/12/03 03:30:06;;;;;;;10.43;10.13;;;-2.80;99.90;;;;;;5110692;27;20233;-83
2023/12/03 03:32:46;;;;;;;10.00;9.70;;;-2.70;99.90;;;;;;5110462;28;20225;-83
2023/12/03 03:35:15;;;;;;;10.37;10.07;;;-2.70;99.90;;;;;;5109962;28;20237;-83
2023/12/03 03:37:43;;;;;;;10.57;10.27;;;-2.70;99.90;;;;;;5109975;28;20243;-83
2023/12/03 03:40:13;;;;;;;10.33;10.03;;;-2.60;99.90;;;;;;5109614;28;20259;-82
2023/12/03 03:42:42;;;;;;;10.30;10.00;;;-2.60;99.90;;;;;;5110209;28;20217;-83
2023/12/03 03:47:59;;;;;;;10.77;10.47;;;-2.80;99.90;;;;;;5109354;28;20244;-82
2023/12/03 03:50:29;;;;;;;10.60;10.30;;;-2.80;99.90;;;;;;5109719;28;20234;-83
2023/12/03 03:52:58;;;;;;;10.50;10.20;;;-2.70;99.90;;;;;;5108607;28;20230;-82
2023/12/03 03:55:37;;;;;;;10.67;10.37;;;-2.80;99.90;;;;;;5108674;28;20232;-83
2023/12/03 03:58:05;;;;;;;10.40;10.10;;;-2.80;99.90;;;;;;5108706;28;20343;-82
2023/12/03 04:00:38;;;;;;;10.43;10.13;;;-2.80;99.90;;;;;;5109668;28;20237;-83
2023/12/03 04:03:05;;;;;;;10.40;10.10;;;-2.90;99.90;;;;;;5110066;28;20221;-82
2023/12/03 04:05:34;;;;;;;10.50;10.20;;;-2.80;99.90;;;;;;5108191;28;20297;-82
2023/12/03 04:08:04;;;;;;;10.47;10.17;;;-2.90;99.90;;;;;;5108084;28;20259;-82
2023/12/03 04:10:34;;;;;;;10.43;10.13;;;-2.80;99.90;;;;;;5107999;28;20363;-83
2023/12/03 04:13:03;;;;;;;10.30;10.00;;;-2.80;99.90;;;;;;5108281;28;20222;-83
2023/12/03 04:15:31;;;;;;;10.33;10.03;;;-2.80;99.90;;;;;;5109395;28;20229;-83
2023/12/03 04:18:04;;;;;;;10.73;10.43;;;-2.80;99.90;;;;;;5109337;27;20233;-83
2023/12/03 04:20:34;;;;;;;10.37;10.07;;;-2.90;99.90;;;;;;5107734;28;20226;-82
2023/12/03 04:23:02;;;;;;;10.47;10.17;;;-2.90;99.90;;;;;;5108713;28;20233;-82
2023/12/03 04:25:30;;;;;;;10.57;10.27;;;-2.90;99.90;;;;;;5108840;28;20229;-83
2023/12/03 04:27:59;;;;;;;10.60;10.30;;;-2.90;99.90;;;;;;5119111;27;20225;-82
2023/12/03 04:30:29;;;;;;;10.40;10.10;;;-2.90;99.90;;;;;;5111252;28;20225;-82
2023/12/03 04:33:01;;;;;;;10.47;10.17;;;-2.90;99.90;;;;;;5110108;28;20225;-83
2023/12/03 04:35:28;;;;;;;10.47;10.17;;;-2.90;99.90;;;;;;5109856;27;20229;-83
2023/12/03 04:37:57;;;;;;;10.43;10.13;;;-2.90;99.90;;;;;;5109301;28;20226;-83
2023/12/03 04:43:05;;;;;;;10.50;10.20;;;-2.90;99.90;;;;;;5111501;28;21006;-83
2023/12/03 04:45:34;;;;;;;10.70;10.40;;;-3.00;99.90;;;;;;5108090;28;20245;-84
2023/12/03 04:51:00;;;;;;;10.73;10.43;;;-3.10;99.90;;;;;;5107863;28;20252;-83
2023/12/03 04:53:39;;;;;;;10.60;10.30;;;-3.30;99.90;;;;;;5108316;28;20217;-82
2023/12/03 04:56:08;;;;;;;10.40;10.10;;;-3.40;99.90;;;;;;5108611;28;20233;-83
2023/12/03 05:01:28;;;;;;;10.33;10.03;;;-3.60;99.90;;;;;;5114240;22;20276;-83
2023/12/03 05:03:56;;;;;;;10.70;10.40;;;-3.70;99.90;;;;;;5089634;28;20245;-83
2023/12/03 05:06:24;;;;;;;10.43;10.13;;;-3.70;99.90;;;;;;5085989;28;20329;-84
2023/12/03 05:08:53;;;;;;;10.60;10.30;;;-3.80;99.90;;;;;;5085704;28;20265;-84
2023/12/03 05:11:35;;;;;;;10.23;9.93;;;-3.90;99.90;;;;;;5086062;28;20254;-83
2023/12/03 05:14:02;;;;;;;10.57;10.27;;;-4.10;99.90;;;;;;5090790;28;20257;-83
2023/12/03 05:16:31;;;;;;;10.40;10.10;;;-4.20;99.90;;;;;;5095985;28;20234;-82
2023/12/03 05:19:02;;;;;;;10.80;10.50;;;-4.30;99.90;;;;;;5095108;28;20280;-83
2023/12/03 05:21:29;;;;;;;10.70;10.40;;;-4.40;99.90;;;;;;5093361;28;20295;-82
2023/12/03 05:23:59;;;;;;;10.63;10.33;;;-4.40;99.90;;;;;;5092453;28;20283;-82
2023/12/03 05:26:28;;;;;;;10.50;10.20;;;-4.50;99.90;;;;;;5091611;28;20230;-83
2023/12/03 05:29:07;;;;;;;10.47;10.17;;;-4.50;99.90;;;;;;5090941;28;20237;-82
2023/12/03 05:31:35;;;;;;;10.67;10.37;;;-4.50;99.90;;;;;;5091395;28;20347;-82
2023/12/03 05:36:52;;;;;;;10.10;9.80;;;-4.50;99.90;;;;;;5093950;28;20225;-84
2023/12/03 05:39:31;;;;;;;10.27;9.97;;;-4.50;99.90;;;;;;5092850;28;20225;-82
2023/12/03 05:42:00;;;;;;;10.03;9.73;;;-4.50;99.90;;;;;;5091903;28;20237;-83
2023/12/03 05:44:30;;;;;;;10.27;9.97;;;-4.50;99.90;;;;;;5091345;28;20293;-82
2023/12/03 05:47:00;;;;;;;9.93;9.63;;;-4.50;99.90;;;;;;5091480;28;20226;-81
2023/12/03 05:49:30;;;;;;;10.17;9.87;;;-4.40;99.90;;;;;;5093098;28;20260;-82
2023/12/03 05:51:58;;;;;;;10.17;9.87;;;-4.40;99.90;;;;;;5091657;28;20237;-82
2023/12/03 05:54:27;;;;;;;10.30;10.00;;;-4.40;99.90;;;;;;5090267;28;20219;-82
2023/12/03 05:59:35;;;;;;;10.20;9.90;;;-4.30;99.90;;;;;;5089576;28;20237;-82
2023/12/03 06:02:04;;;;;;;9.70;9.40;;;-4.30;99.90;;;;;;5090518;28;20227;-82
2023/12/03 06:04:37;;;;;;;10.10;9.80;;;-4.20;99.90;;;;;;5090125;28;20249;-82
2023/12/03 06:07:04;;;;;;;10.00;9.70;;;-4.20;99.90;;;;;;5089848;28;20263;-82
2023/12/03 06:09:33;;;;;;;10.33;10.03;;;-4.20;99.90;;;;;;5089994;28;20320;-82
2023/12/03 06:12:02;;;;;;;9.93;9.63;;;-4.20;99.90;;;;;;5089752;28;20222;-82
2023/12/03 06:14:42;;;;;;;9.90;9.60;;;-4.20;99.90;;;;;;5089809;28;20244;-82
2023/12/03 06:17:10;;;;;;;10.00;9.70;;;-4.20;99.90;;;;;;5089653;28;20251;-83
2023/12/03 06:19:41;;;;;;;9.80;9.50;;;-4.30;99.90;;;;;;5090388;28;20264;-82
2023/12/03 06:22:09;;;;;;;10.30;10.00;;;-4.30;99.90;;;;;;5089435;28;20256;-82
2023/12/03 06:24:48;;;;;;;10.10;9.80;;;-4.30;99.90;;;;;;5089443;28;20241;-82
2023/12/03 06:27:17;;;;;;;10.10;9.80;;;-4.30;99.90;;;;;;5089193;28;20226;-82
2023/12/03 06:29:45;;;;;;;9.73;9.43;;;-4.40;99.90;;;;;;5095209;28;20234;-82
2023/12/03 06:32:25;;;;;;;10.10;9.80;;;-4.40;99.90;;;;;;5091654;28;20222;-82
2023/12/03 06:34:57;;;;;;;10.20;9.90;;;-4.50;99.90;;;;;;5090582;28;20214;-82
2023/12/03 06:37:24;;;;;;;10.13;9.83;;;-4.50;99.90;;;;;;5089874;28;20285;-82
2023/12/03 06:39:53;;;;;;;10.23;9.93;;;-4.60;99.90;;;;;;5089295;28;20244;-80
2023/12/03 06:42:22;;;;;;;10.73;10.43;;;-4.60;99.90;;;;;;5090120;28;20295;-84
2023/12/03 06:45:01;;;;;;;10.40;10.10;;;-4.70;99.90;;;;;;5089962;28;20229;-81
2023/12/03 06:47:29;;;;;;;10.73;10.43;;;-4.80;99.90;;;;;;5089245;28;20279;-82
2023/12/03 06:50:02;;;;;;;10.57;10.27;;;-4.90;99.90;;;;;;5088446;28;20251;-83
2023/12/03 06:52:30;;;;;;;11.00;10.70;;;-5.00;99.90;;;;;;5089893;28;20233;-82
2023/12/03 06:55:09;;;;;;;10.80;10.50;;;-5.10;99.90;;;;;;5094789;27;20229;-81
2023/12/03 06:57:39;;;;;;;10.77;10.47;;;-5.10;99.90;;;;;;5087859;28;20231;-84
2023/12/03 07:00:08;;;;;;;10.67;10.37;;;-5.10;99.90;;;;;;5088509;28;20249;-82
2023/12/03 07:02:37;;;;;;;11.00;10.70;;;-5.10;99.90;;;;;;5089213;28;20251;-82
2023/12/03 07:05:24;;;;;;;10.37;10.07;;;-5.10;99.90;;;;;;5090734;28;20241;-84
2023/12/03 07:07:52;;;;;;;10.57;10.27;;;-5.10;99.90;;;;;;5090012;28;20240;-82
2023/12/03 07:10:32;;;;;;;10.70;10.40;;;-5.10;99.90;;;;;;5089548;28;20304;-82
2023/12/03 07:13:00;;;;;;;9.97;9.67;;;-5.00;99.90;;;;;;5089976;28;20238;-82
2023/12/03 07:15:40;;;;;;;10.60;10.30;;;-5.00;99.90;;;;;;5090975;28;20241;-83
2023/12/03 07:18:08;;;;;;;10.17;9.87;;;-5.00;99.90;;;;;;5089434;28;20247;-83
2023/12/03 07:20:41;;;;;;;10.03;9.73;;;-5.00;99.90;;;;;;5089229;28;20245;-83
2023/12/03 07:23:08;;;;;;;10.50;10.20;;;-5.00;99.90;;;;;;5090184;28;20280;-83
2023/12/03 07:25:36;;;;;;;10.23;9.93;;;-5.00;99.90;;;;;;5089754;28;20233;-82
2023/12/03 07:28:06;;;;;;;10.20;9.90;;;-5.00;99.90;;;;;;5089576;28;20244;-83
2023/12/03 07:30:45;;;;;;;10.57;10.27;;;-5.00;99.90;;;;;;5090019;28;20241;-83
2023/12/03 07:33:13;;;;;;;10.53;10.23;;;-4.90;99.90;;;;;;5090695;28;20318;-82
2023/12/03 07:35:46;;;;;;;10.43;10.13;;;-4.90;99.90;;;;;;5090058;28;20222;-82
2023/12/03 07:38:14;;;;;;;10.60;10.30;;;-5.00;99.90;;;;;;5088502;28;20249;-83
2023/12/03 07:40:42;;;;;;;10.30;10.00;;;-5.00;99.90;;;;;;5088645;28;20236;-84
2023/12/03 07:43:11;;;;;;;10.03;9.73;;;-5.00;99.90;;;;;;5089808;28;20217;-84
2023/12/03 07:45:51;;;;;;;10.30;10.00;;;-5.00;99.90;;;;;;5088244;28;21050;-83
2023/12/03 07:48:19;;;;;;;9.83;9.53;;;-4.90;99.90;;;;;;5089282;28;20244;-84
2023/12/03 07:50:52;;;;;;;10.40;10.10;;;-4.90;99.90;;;;;;5087734;28;20318;-83
2023/12/03 07:53:19;;;;;;;10.20;9.90;;;-4.90;99.90;;;;;;5092055;28;20225;-84
2023/12/03 07:55:47;;;;;;;10.80;10.50;;;-4.80;99.90;;;;;;5089708;28;20228;-84
2023/12/03 08:00:58;;;;;;;10.10;9.80;;;-4.70;99.90;;;;;;5087646;28;20245;-84
2023/12/03 08:03:25;;;;;;;10.40;10.10;;;-4.70;99.90;;;;;;5088559;28;20221;-84
2023/12/03 08:05:56;;;;;;;10.43;10.13;;;-4.60;99.90;;;;;;5088201;28;20234;-84
2023/12/03 08:08:24;;;;;;;10.60;10.30;;;-4.60;99.90;;;;;;5088275;28;20244;-84
2023/12/03 08:11:03;;;;;;;10.00;9.70;;;-4.50;99.90;;;;;;5087239;28;20317;-84
2023/12/03 08:13:32;;;;;;;10.37;10.07;;;-4.50;99.90;;;;;;5087713;28;20237;-83
2023/12/03 08:16:01;;;;;;;10.33;10.03;;;-4.40;99.90;;;;;;5088050;28;20320;-84
2023/12/03 08:18:40;;;;;;;10.17;9.87;;;-4.30;99.90;;;;;;5088190;28;20295;-84
2023/12/03 08:21:11;;;;;;;10.67;10.37;;;-4.20;99.90;;;;;;5090594;28;20232;-84
2023/12/03 08:23:38;;;;;;;10.60;10.30;;;-4.20;99.90;;;;;;5094374;28;20295;-84
2023/12/03 08:26:07;;;;;;;10.07;9.77;;;-4.10;99.90;;;;;;5096203;28;20221;-81
2023/12/03 08:31:15;;;;;;;10.27;9.97;;;-3.90;99.90;;;;;;5124547;22;20276;-82
2023/12/03 08:33:54;;;;;;;10.40;10.10;;;-3.80;99.90;;;;;;5118864;27;20234;-84
2023/12/03 08:36:30;;;;;;;10.30;10.00;;;-3.70;99.90;;;;;;5119302;27;21006;-84
2023/12/03 08:41:39;;;;;;;9.97;9.67;;;-3.70;99.90;;;;;;5117431;28;20208;-83
2023/12/03 08:44:09;;;;;;;10.60;10.30;;;-3.50;99.90;;;;;;5118409;27;20214;-83
2023/12/03 08:46:38;;;;;;;10.17;9.87;;;-3.50;99.90;;;;;;5119355;27;20221;-80
2023/12/03 08:49:17;;;;;;;10.07;9.77;;;-3.40;99.90;;;;;;5110201;28;20234;-82
2023/12/03 08:54:35;;;;;;;10.10;9.80;;;-3.30;99.90;;;;;;5108389;28;20218;-82
2023/12/03 08:57:03;;;;;;;10.03;9.73;;;-3.30;99.90;;;;;;5107640;28;20221;-82
2023/12/03 08:59:42;;;;;;;10.30;10.00;;;-3.10;99.90;;;;;;5107333;28;20233;-83
2023/12/03 09:02:11;;;;;;;10.20;9.90;;;-3.00;99.90;;;;;;5108288;28;20229;-83
2023/12/03 09:04:40;;;;;;;10.00;9.70;;;-3.00;99.90;;;;;;5108220;28;20233;-83
2023/12/03 09:10:12;;;;;;;10.30;10.00;;;-2.90;99.90;;;;;;5134692;22;20234;-81
2023/12/03 09:12:44;;;;;;;10.00;9.70;;;-2.80;99.90;;;;;;5085266;28;20238;-79
2023/12/03 09:15:12;;;;;;;10.30;10.00;;;-2.80;99.90;;;;;;5084898;28;20226;-79
2023/12/03 09:17:40;;;;;;;10.43;10.13;;;-2.80;99.90;;;;;;5084601;28;20269;-80
2023/12/03 09:20:08;;;;;;;10.60;10.30;;;-2.80;99.90;;;;;;5084798;28;20237;-80
2023/12/03 09:22:37;;;;;;;10.40;10.10;;;-2.70;99.90;;;;;;5086087;28;20407;-80
2023/12/03 09:25:06;;;;;;;10.17;9.87;;;-2.70;99.90;;;;;;5081997;28;20261;-81
2023/12/03 09:27:34;;;;;;;10.70;10.40;;;-2.60;99.90;;;;;;5081168;28;20234;-78
2023/12/03 09:30:04;;;;;;;10.37;10.07;;;-2.50;99.90;;;;;;5081078;28;20234;-79
2023/12/03 09:32:31;;;;;;;10.43;10.13;;;-2.40;99.90;;;;;;5081561;28;20303;-79
2023/12/03 09:34:59;;;;;;;10.80;10.50;;;-2.40;99.90;;;;;;5081586;28;20325;-79
2023/12/03 09:37:26;;;;;;;10.40;10.10;;;-2.30;99.90;;;;;;5081806;28;20214;-79
2023/12/03 09:39:57;;;;;;;10.73;10.43;;;-2.30;99.90;;;;;;5082059;28;20244;-80
2023/12/03 09:42:27;;;;;;;10.40;10.10;;;-2.30;99.90;;;;;;5082288;28;20269;-79
2023/12/03 09:45:03;;;;;;;10.37;10.07;;;-2.20;99.90;;;;;;5082108;28;20238;-80
2023/12/03 09:47:35;;;;;;;10.60;10.30;;;-2.20;99.90;;;;;;5082050;28;20256;-80
2023/12/03 09:50:10;;;;;;;10.53;10.23;;;-2.20;99.90;;;;;;5080985;28;20241;-79
2023/12/03 09:52:41;;;;;;;10.60;10.30;;;-2.10;99.90;;;;;;5082375;28;20240;-79
2023/12/03 09:55:10;;;;;;;10.67;10.37;;;-2.10;99.90;;;;;;5081930;28;20237;-79
2023/12/03 09:57:41;;;;;;;10.40;10.10;;;-2.10;99.90;;;;;;5081351;28;20231;-80
2023/12/03 10:00:10;;;;;;;10.37;10.07;;;-2.00;99.90;;;;;;5080595;28;20270;-79
2023/12/03 10:02:38;;;;;;;10.40;10.10;;;-1.90;99.90;;;;;;5083117;28;20232;-78
2023/12/03 10:05:07;;;;;;;10.10;9.80;;;-1.80;99.90;;;;;;5084618;28;20231;-79
2023/12/03 10:07:35;;;;;;;10.23;9.93;;;-1.80;99.90;;;;;;5084893;28;20229;-79
2023/12/03 10:10:04;;;;;;;9.97;9.67;;;-1.80;99.90;;;;;;5084916;28;20244;-79
2023/12/03 10:12:41;;;;;;;10.10;9.80;;;-1.80;99.90;;;;;;5087570;28;20259;-79
2023/12/03 10:15:10;;;;;;;10.10;9.80;;;-1.70;99.90;;;;;;5086106;28;20236;-80
2023/12/03 10:17:39;;;;;;;10.17;9.87;;;-1.70;99.90;;;;;;5084364;28;20244;-78
2023/12/03 10:20:24;;;;;;;10.10;9.80;;;-1.80;99.90;;;;;;5084042;28;20290;-78
2023/12/03 10:22:53;;;;;;;10.00;9.70;;;-1.70;99.90;;;;;;5083696;28;20283;-79
2023/12/03 10:25:31;;;;;;;10.00;9.70;;;-1.70;99.90;;;;;;5086754;28;20236;-78
2023/12/03 10:28:01;;;;;;;10.17;9.87;;;-1.60;99.90;;;;;;5083867;28;20229;-81
2023/12/03 10:30:28;;;;;;;10.13;9.83;;;-1.50;99.90;;;;;;5085577;28;20251;-81
2023/12/03 10:32:56;;;;;;;9.80;9.50;;;-1.50;99.90;;;;;;5085404;28;20240;-81
2023/12/03 10:35:25;;;;;;;9.40;9.10;;;-1.40;99.90;;;;;;5084547;28;20221;-79
2023/12/03 10:37:53;;;;;;;9.33;9.03;;;-1.20;99.90;;;;;;5085315;28;20247;-79
2023/12/03 10:40:21;;;;;;;9.30;9.00;;;-1.10;99.90;;;;;;5084306;28;20245;-79
2023/12/03 10:42:48;;;;;;;9.30;9.00;;;-0.90;99.90;;;;;;5085024;28;20255;-79
2023/12/03 10:45:17;;;;;;;9.10;8.80;;;-0.80;99.90;;;;;;5085345;28;20316;-79
2023/12/03 10:47:45;;;;;;;9.30;9.00;;;-0.70;99.90;;;;;;5085173;28;20222;-79
2023/12/03 10:50:14;;;;;;;9.70;9.40;;;-0.60;99.90;;;;;;5084601;28;20237;-80
2023/12/03 10:52:42;;;;;;;9.10;8.80;;;-0.30;99.90;;;;;;5085089;28;20267;-79
2023/12/03 10:55:13;;;;;;;8.80;8.60;;;-0.30;99.90;;;;;;5086363;28;20225;-79
2023/12/03 10:57:51;;;;;;;9.20;8.90;;;-0.40;99.90;;;;;;5084615;28;20275;-80
2023/12/03 11:00:22;;;;;;;8.37;8.17;;;-0.40;99.90;;;;;;5084551;28;20249;-81
2023/12/03 11:03:01;;;;;;;8.80;8.60;;;-0.40;99.90;;;;;;5085810;28;20232;-80
2023/12/03 11:05:34;;;;;;;9.10;8.80;;;-0.30;99.90;;;;;;5085307;28;20238;-79
2023/12/03 11:08:03;;;;;;;9.40;9.10;;;-0.20;99.90;;;;;;5085851;28;20235;-80
2023/12/03 11:10:31;;;;;;;9.33;9.03;;;-0.10;99.90;;;;;;5084324;28;20266;-79
2023/12/03 11:13:00;;;;;;;9.90;9.60;;;0.10;99.90;;;;;;5083915;28;20356;-80
2023/12/03 11:15:29;;;;;;;9.50;9.20;;;0.30;99.90;;;;;;5085153;28;20226;-79
2023/12/03 11:17:57;;;;;;;9.60;9.30;;;0.50;99.90;;;;;;5083577;28;20231;-80
2023/12/03 11:20:32;;;;;;;10.00;9.70;;;0.60;99.90;;;;;;5083863;28;20288;-80
2023/12/03 11:23:23;;;;;;;9.87;9.57;;;0.70;99.90;;;;;;5083646;28;20246;-79
2023/12/03 11:25:57;;;;;;;9.60;9.30;;;0.70;99.90;;;;;;5083927;28;20249;-79
2023/12/03 11:28:24;;;;;;;9.80;9.50;;;0.80;99.90;;;;;;5083686;28;20230;-80
2023/12/03 11:30:54;;;;;;;9.80;9.50;;;0.80;99.90;;;;;;5084312;28;20242;-79
2023/12/03 11:33:23;;;;;;;9.70;9.40;;;0.90;99.90;;;;;;5086014;28;20233;-79
2023/12/03 11:35:52;;;;;;;9.60;9.30;;;0.90;99.90;;;;;;5093914;28;20265;-79
2023/12/03 11:38:32;;;;;;;9.57;9.27;;;0.80;99.90;;;;;;5096518;28;20225;-79
2023/12/03 11:40:59;;;;;;;9.73;9.43;;;1.00;99.90;;;;;;5096383;28;20245;-79
2023/12/03 11:43:30;;;;;;;9.90;9.60;;;1.20;99.90;;;;;;5096161;28;20222;-80
2023/12/03 11:45:59;;;;;;;10.00;9.70;;;1.30;99.90;;;;;;5085869;28;20233;-79
2023/12/03 11:48:29;;;;;;;9.80;9.50;;;1.50;99.90;;;;;;5085422;28;20288;-80
2023/12/03 11:50:57;;;;;;;10.07;9.77;;;1.70;99.90;;;;;;5084939;28;20252;-80
2023/12/03 11:53:39;;;;;;;10.27;9.97;;;1.80;99.90;;;;;;5084482;28;20257;-80
2023/12/03 11:56:09;;;;;;;10.10;9.80;;;2.00;99.90;;;;;;5082379;28;20234;-79
2023/12/03 11:58:36;;;;;;;10.03;9.73;;;2.10;99.90;;;;;;5082445;28;20229;-79
2023/12/03 12:01:06;;;;;;;10.07;9.77;;;2.00;99.90;;;;;;5083366;28;20245;-79
2023/12/03 12:03:33;;;;;;;9.90;9.60;;;1.70;99.90;;;;;;5082890;28;20234;-79
2023/12/03 12:06:00;;;;;;;10.07;9.77;;;1.40;99.90;;;;;;5082929;28;20226;-79
2023/12/03 12:08:32;;;;;;;9.90;9.60;;;1.20;99.90;;;;;;5083901;28;20320;-79
2023/12/03 12:11:08;;;;;;;10.03;9.73;;;1.20;99.90;;;;;;5084247;28;20238;-80
2023/12/03 12:13:38;;;;;;;9.60;9.30;;;1.40;99.90;;;;;;5086010;28;20235;-79
2023/12/03 12:16:10;;;;;;;9.90;9.60;;;1.60;99.90;;;;;;5083993;28;20272;-79
2023/12/03 12:18:38;;;;;;;10.03;9.73;;;1.80;99.90;;;;;;5084436;28;20234;-80
2023/12/03 12:21:10;;;;;;;9.77;9.47;;;2.00;99.90;;;;;;5084439;28;20241;-79
2023/12/03 12:23:38;;;;;;;9.70;9.40;;;1.60;99.90;;;;;;5084440;28;20234;-79
2023/12/03 12:26:06;;;;;;;9.67;9.37;;;1.40;99.90;;;;;;5082308;28;20234;-79
2023/12/03 12:28:34;;;;;;;9.80;9.50;;;1.00;99.90;;;;;;5083137;28;20225;-80
2023/12/03 12:31:02;;;;;;;9.80;9.50;;;0.80;99.90;;;;;;5083408;28;20292;-79
2023/12/03 12:33:31;;;;;;;9.47;9.17;;;0.80;99.90;;;;;;5083612;28;20237;-79
2023/12/03 12:36:01;;;;;;;9.50;9.20;;;0.90;99.90;;;;;;5082699;28;20256;-80
2023/12/03 12:38:29;;;;;;;9.47;9.17;;;1.00;99.90;;;;;;5084009;28;20218;-80
2023/12/03 12:40:57;;;;;;;9.40;9.10;;;1.10;99.90;;;;;;5087805;28;20238;-79
2023/12/03 12:43:24;;;;;;;9.23;8.93;;;1.30;99.90;;;;;;5087065;28;20272;-79
2023/12/03 12:45:52;;;;;;;9.57;9.27;;;1.40;99.90;;;;;;5083954;28;20244;-79
2023/12/03 12:48:29;;;;;;;9.40;9.10;;;1.50;99.90;;;;;;5082447;28;20245;-79
2023/12/03 12:50:58;;;;;;;9.87;9.57;;;1.50;99.90;;;;;;5088775;28;20243;-79
2023/12/03 12:53:26;;;;;;;9.53;9.23;;;1.50;99.90;;;;;;5087324;28;20238;-79
2023/12/03 12:55:53;;;;;;;9.87;9.57;;;1.50;99.90;;;;;;5084944;28;20233;-79
2023/12/03 12:58:21;;;;;;;10.00;9.70;;;1.20;99.90;;;;;;5084493;28;20245;-79
2023/12/03 13:00:48;;;;;;;9.90;9.60;;;1.30;99.90;;;;;;5083935;28;20237;-79
2023/12/03 13:03:15;;;;;;;9.97;9.67;;;1.50;99.90;;;;;;5084845;28;20229;-80
2023/12/03 13:05:44;;;;;;;9.67;9.37;;;1.60;99.90;;;;;;5084332;28;20238;-80
2023/12/03 13:08:13;;;;;;;9.43;9.13;;;1.50;99.90;;;;;;5083398;28;20229;-79
2023/12/03 13:10:40;;;;;;;9.80;9.50;;;1.60;99.90;;;;;;5083156;28;20242;-79
2023/12/03 13:13:08;;;;;;;9.87;9.57;;;1.70;99.90;;;;;;5083879;28;20324;-79
2023/12/03 13:15:37;;;;;;;9.80;9.50;;;1.70;99.90;;;;;;5083217;28;20218;-79
2023/12/03 13:18:07;;;;;;;9.93;9.63;;;1.60;99.90;;;;;;5082816;28;20257;-80
2023/12/03 13:20:35;;;;;;;10.33;10.03;;;1.70;99.90;;;;;;5082451;28;20230;-79
2023/12/03 13:23:02;;;;;;;10.07;9.77;;;1.80;99.90;;;;;;5084166;28;20333;-80
2023/12/03 13:25:31;;;;;;;9.80;9.50;;;1.90;99.90;;;;;;5081389;28;20273;-78